Time;durP1;ratioP1;P1;durP2;ratioP2;P2;SDS_P1;SDS_P2;PMS_P1;PMS_P2;Temp;Humidity;BMP_temperature;BMP_pressure;BME280_temperature;BME280_humidity;BME280_pressure;Samples;Min_cycle;Max_cycle;Signal;HPM_P1;HPM_P2
2022/03/27 00:05:11;;;;;;;;;;;;;;;-139.34;100.00;63888.56;10626070;27;19923;-67
2022/03/27 00:11:23;;;;;;;;;;;;;;;-139.34;100.00;63888.56;10564472;28;19927;-66
2022/03/27 00:16:14;;;;;;;;;;;;;;;-139.34;100.00;63888.56;10581313;27;19919;-66
2022/03/27 00:21:36;;;;;;;;;;;;;;;-139.34;100.00;63888.56;10605325;27;19919;-66
2022/03/27 00:26:58;;;;;;;;;;;;;;;-139.34;100.00;63888.56;10635205;27;19925;-67
2022/03/27 00:32:20;;;;;;;;;;;;;;;-139.34;100.00;63888.56;10620286;27;19927;-67
2022/03/27 00:37:42;;;;;;;;;;;;;;;-139.34;100.00;63888.56;10606030;27;19962;-67
2022/03/27 00:43:04;;;;;;;;;;;;;;;-139.34;100.00;63888.56;10598450;27;19919;-67
2022/03/27 00:48:26;;;;;;;;;;;;;;;-139.34;100.00;63888.56;10585442;27;19993;-67
2022/03/27 00:53:48;;;;;;;;;;;;;;;-139.34;100.00;63888.56;10597859;27;19923;-66
2022/03/27 00:59:09;;;;;;;;;;;;;;;-139.34;100.00;63888.56;10615650;27;19923;-67
2022/03/27 01:04:31;;;;;;;;;;;;;;;-139.34;100.00;63888.56;10617773;27;19928;-66
2022/03/27 01:09:55;;;;;;;;;;;;;;;-139.34;100.00;63888.56;10612662;27;19930;-67
2022/03/27 01:15:43;;;;;;;;;;;;;;;-139.34;100.00;63888.56;10601087;27;19924;-67
2022/03/27 01:21:07;;;;;;;;;;;;;;;-139.34;100.00;63888.56;10620731;27;20118;-66
2022/03/27 01:26:29;;;;;;;;;;;;;;;-139.34;100.00;63888.56;10577654;27;19924;-67
2022/03/27 01:31:54;;;;;;;;;;;;;;;-139.34;100.00;63888.56;10580957;27;20319;-66
2022/03/27 01:37:16;;;;;;;;;;;;;;;-139.34;100.00;63888.56;10641150;27;20347;-67
2022/03/27 01:42:38;;;;;;;;;;;;;;;-139.34;100.00;63888.56;10614668;27;19926;-67
2022/03/27 01:47:59;;;;;;;;;;;;;;;-139.34;100.00;63888.56;10601705;27;19919;-67
2022/03/27 01:53:21;;;;;;;;;;;;;;;-139.34;100.00;63888.56;10614745;27;20393;-67
2022/03/27 01:58:42;;;;;;;;;;;;;;;-139.34;100.00;63888.56;10565621;27;19920;-67
2022/03/27 02:04:05;;;;;;;;;;;;;;;-139.34;100.00;63888.56;10572989;28;20283;-67
2022/03/27 02:09:26;;;;;;;;;;;;;;;-139.34;100.00;63888.56;10584948;27;20261;-67
2022/03/27 02:14:48;;;;;;;;;;;;;;;-139.34;100.00;63888.56;10596846;27;19920;-66
2022/03/27 02:20:10;;;;;;;;;;;;;;;-139.34;100.00;63888.56;10574013;27;20343;-67
2022/03/27 02:25:31;;;;;;;;;;;;;;;-139.34;100.00;63888.56;10629652;27;19922;-66
2022/03/27 02:30:53;;;;;;;;;;;;;;;-139.34;100.00;63888.56;10610087;27;20318;-66
2022/03/27 02:36:15;;;;;;;;;;;;;;;-139.34;100.00;63888.56;10646779;27;19919;-66
2022/03/27 02:41:37;;;;;;;;;;;;;;;-139.34;100.00;63888.56;10589339;27;19930;-66
2022/03/27 02:46:59;;;;;;;;;;;;;;;-139.34;100.00;63888.56;10596535;27;19923;-67
2022/03/27 02:52:21;;;;;;;;;;;;;;;-139.34;100.00;63888.56;10592038;27;19923;-67
2022/03/27 02:57:42;;;;;;;;;;;;;;;-139.34;100.00;63888.56;10587442;27;19919;-66
2022/03/27 03:03:04;;;;;;;;;;;;;;;-139.34;100.00;63888.56;10600523;27;19923;-67
2022/03/27 03:08:26;;;;;;;;;;;;;;;-139.34;100.00;63888.56;10598885;27;20102;-67
2022/03/27 03:13:49;;;;;;;;;;;;;;;-139.34;100.00;63888.56;10605336;27;19926;-67
2022/03/27 03:19:31;;;;;;;;;;;;;;;-139.34;100.00;63888.56;10621898;27;19919;-66
2022/03/27 03:24:53;;;;;;;;;;;;;;;-139.34;100.00;63888.56;10582558;27;19923;-67
2022/03/27 03:30:16;;;;;;;;;;;;;;;-139.34;100.00;63888.56;10603362;27;19919;-67
2022/03/27 03:35:39;;;;;;;;;;;;;;;-139.34;100.00;63888.56;10592911;27;20283;-67
2022/03/27 03:41:03;;;;;;;;;;;;;;;-139.34;100.00;63888.56;10551004;28;20523;-67
2022/03/27 03:46:24;;;;;;;;;;;;;;;-139.34;100.00;63888.56;10627202;27;19918;-67
2022/03/27 03:51:46;;;;;;;;;;;;;;;-139.34;100.00;63888.56;10608798;27;19919;-66
2022/03/27 03:57:08;;;;;;;;;;;;;;;-139.34;100.00;63888.56;10600611;27;20375;-67
2022/03/27 04:02:30;;;;;;;;;;;;;;;-139.34;100.00;63888.56;10603851;27;19927;-66
2022/03/27 04:07:52;;;;;;;;;;;;;;;-139.34;100.00;63888.56;10606441;27;20000;-67
2022/03/27 04:13:13;;;;;;;;;;;;;;;-139.34;100.00;63888.56;10615280;27;19999;-67
2022/03/27 04:18:35;;;;;;;;;;;;;;;-139.34;100.00;63888.56;10605327;27;19926;-66
2022/03/27 04:23:57;;;;;;;;;;;;;;;-139.34;100.00;63888.56;10605936;27;19920;-67
2022/03/27 04:29:24;;;;;;;;;;;;;;;-139.34;100.00;63888.56;10574485;28;19919;-66
2022/03/27 04:34:50;;;;;;;;;;;;;;;-139.34;100.00;63888.56;10565789;27;19931;-65
2022/03/27 04:40:13;;;;;;;;;;;;;;;-139.34;100.00;63888.56;10600495;27;20533;-65
2022/03/27 04:45:35;;;;;;;;;;;;;;;-139.34;100.00;63888.56;10603854;27;20371;-66
2022/03/27 04:50:56;;;;;;;;;;;;;;;-139.34;100.00;63888.56;10563241;28;19926;-65
2022/03/27 04:56:18;;;;;;;;;;;;;;;-139.34;100.00;63888.56;10614601;27;19920;-66
2022/03/27 05:01:41;;;;;;;;;;;;;;;-139.34;100.00;63888.56;10605152;27;19931;-66
2022/03/27 05:07:03;;;;;;;;;;;;;;;-139.34;100.00;63888.56;10612865;27;19952;-68
2022/03/27 05:12:25;;;;;;;;;;;;;;;-139.34;100.00;63888.56;10595074;27;19919;-66
2022/03/27 05:17:58;;;;;;;;;;;;;;;-139.34;100.00;63888.56;10600316;27;19927;-66
2022/03/27 05:23:20;;;;;;;;;;;;;;;-139.34;100.00;63888.56;10609915;27;19953;-66
2022/03/27 05:28:41;;;;;;;;;;;;;;;-139.34;100.00;63888.56;10623817;27;20473;-66
2022/03/27 05:34:04;;;;;;;;;;;;;;;-139.34;100.00;63888.56;10654011;27;19929;-66
2022/03/27 05:39:25;;;;;;;;;;;;;;;-139.34;100.00;63888.56;10623610;27;19919;-66
2022/03/27 05:44:47;;;;;;;;;;;;;;;-139.34;100.00;63888.56;10659547;27;19919;-66
2022/03/27 05:50:13;;;;;;;;;;;;;;;-139.34;100.00;63888.56;10620570;27;19926;-66
2022/03/27 05:55:34;;;;;;;;;;;;;;;-139.34;100.00;63888.56;10591019;27;19920;-66
2022/03/27 06:00:56;;;;;;;;;;;;;;;-139.34;100.00;63888.56;10570444;28;19926;-66
2022/03/27 06:06:17;;;;;;;;;;;;;;;-139.34;100.00;63888.56;10594441;27;19919;-66
2022/03/27 06:11:39;;;;;;;;;;;;;;;-139.34;100.00;63888.56;10622700;27;19923;-66
2022/03/27 06:17:00;;;;;;;;;;;;;;;-139.34;100.00;63888.56;10603250;27;19945;-67
2022/03/27 06:22:22;;;;;;;;;;;;;;;-139.34;100.00;63888.56;10613302;27;19919;-66
2022/03/27 06:27:44;;;;;;;;;;;;;;;-139.34;100.00;63888.56;10596592;27;19923;-66
2022/03/27 06:33:06;;;;;;;;;;;;;;;-139.34;100.00;63888.56;10600400;28;19924;-66
2022/03/27 06:38:28;;;;;;;;;;;;;;;-139.34;100.00;63888.56;10641341;27;19929;-66
2022/03/27 06:43:50;;;;;;;;;;;;;;;-139.34;100.00;63888.56;10599793;28;19919;-66
2022/03/27 06:49:12;;;;;;;;;;;;;;;-139.34;100.00;63888.56;10601253;28;20528;-66
2022/03/27 06:54:34;;;;;;;;;;;;;;;-139.34;100.00;63888.56;10581703;28;20368;-66
2022/03/27 07:05:40;;;;;;;;;;;;;;;-139.34;100.00;63888.56;10600552;28;20415;-66
2022/03/27 07:11:02;;;;;;;;;;;;;;;-139.34;100.00;63888.56;10563653;28;19980;-66
2022/03/27 07:16:26;;;;;;;;;;;;;;;-139.34;100.00;63888.56;10569312;27;20310;-66
2022/03/27 07:21:48;;;;;;;;;;;;;;;-139.34;100.00;63888.56;10575872;28;19924;-66
2022/03/27 07:27:10;;;;;;;;;;;;;;;-139.34;100.00;63888.56;10581269;27;19998;-66
2022/03/27 07:32:31;;;;;;;;;;;;;;;-139.34;100.00;63888.56;10648611;27;19935;-66
2022/03/27 07:37:53;;;;;;;;;;;;;;;-139.34;100.00;63888.56;10614314;27;19920;-66
2022/03/27 07:43:15;;;;;;;;;;;;;;;-139.34;100.00;63888.56;10606519;27;19934;-66
2022/03/27 07:48:36;;;;;;;;;;;;;;;-139.34;100.00;63888.56;10598131;27;20237;-66
2022/03/27 07:53:58;;;;;;;;;;;;;;;-139.34;100.00;63888.56;10578521;27;20272;-67
2022/03/27 07:59:19;;;;;;;;;;;;;;;-139.34;100.00;63888.56;10586143;27;19927;-66
2022/03/27 08:04:41;;;;;;;;;;;;;;;-139.34;100.00;63888.56;10601679;27;19942;-66
2022/03/27 08:10:03;;;;;;;;;;;;;;;-139.34;100.00;63888.56;10605243;27;19975;-66
2022/03/27 08:15:25;;;;;;;;;;;;;;;-139.34;100.00;63888.56;10645982;27;20707;-66
2022/03/27 08:20:46;;;;;;;;;;;;;;;-139.34;100.00;63888.56;10597546;27;19971;-66
2022/03/27 08:31:48;;;;;;;;;;;;;;;-139.34;100.00;63888.56;10649260;27;19919;-66
2022/03/27 08:37:12;;;;;;;;;;;;;;;-139.34;100.00;63888.56;10616000;27;19953;-66
2022/03/27 08:42:34;;;;;;;;;;;;;;;-139.34;100.00;63888.56;10605143;27;19942;-66
2022/03/27 08:47:56;;;;;;;;;;;;;;;-139.34;100.00;63888.56;10607703;27;19930;-70
2022/03/27 08:53:22;;;;;;;;;;;;;;;-139.34;100.00;63888.56;10606447;27;19966;-69
2022/03/27 08:58:44;;;;;;;;;;;;;;;-139.34;100.00;63888.56;10588561;27;19924;-69
2022/03/27 09:04:06;;;;;;;;;;;;;;;-139.34;100.00;63888.56;10617637;27;19919;-69
2022/03/27 09:09:32;;;;;;;;;;;;;;;-139.34;100.00;63888.56;10630430;27;20013;-66
2022/03/27 09:14:53;;;;;;;;;;;;;;;-139.34;100.00;63888.56;10606195;27;19959;-68
2022/03/27 09:20:28;;;;;;;;;;;;;;;-139.34;100.00;63888.56;10616663;27;19927;-65
2022/03/27 09:25:50;;;;;;;;;;;;;;;-139.34;100.00;63888.56;10574916;27;20285;-65
2022/03/27 09:31:14;;;;;;;;;;;;;;;-139.34;100.00;63888.56;10575780;27;20402;-65
2022/03/27 09:36:42;;;;;;;;;;;;;;;-139.34;100.00;63888.56;10566102;27;19924;-65
2022/03/27 09:42:16;;;;;;;;;;;;;;;-139.34;100.00;63888.56;10578639;27;20575;-66
2022/03/27 09:47:38;;;;;;;;;;;;;;;-139.34;100.00;63888.56;10574397;27;19920;-65
2022/03/27 09:53:17;;;;;;;;;;;;;;;-139.34;100.00;63888.56;10566144;27;19919;-66
2022/03/27 09:58:38;;;;;;;;;;;;;;;-139.34;100.00;63888.56;10565240;27;19920;-66
2022/03/27 10:04:04;;;;;;;;;;;;;;;-139.34;100.00;63888.56;10584515;27;19923;-66
2022/03/27 10:09:25;;;;;;;;;;;;;;;-139.34;100.00;63888.56;10595540;27;20007;-66
2022/03/27 10:14:48;;;;;;;;;;;;;;;-139.34;100.00;63888.56;10651889;27;19922;-67
2022/03/27 10:20:12;;;;;;;;;;;;;;;-139.34;100.00;63888.56;10589467;27;19923;-67
2022/03/27 10:25:37;;;;;;;;;;;;;;;-139.34;100.00;63888.56;10582507;27;19920;-66
2022/03/27 10:30:59;;;;;;;;;;;;;;;-139.34;100.00;63888.56;10573404;28;19927;-66
2022/03/27 10:36:41;;;;;;;;;;;;;;;-139.34;100.00;63888.56;10569969;28;19924;-66
2022/03/27 10:42:13;;;;;;;;;;;;;;;-139.34;100.00;63888.56;10565731;28;19946;-66
2022/03/27 10:47:34;;;;;;;;;;;;;;;-139.34;100.00;63888.56;10572207;28;19930;-66
2022/03/27 10:53:01;;;;;;;;;;;;;;;-139.34;100.00;63888.56;10581898;27;20368;-65
2022/03/27 10:58:27;;;;;;;;;;;;;;;-139.34;100.00;63888.56;10586382;27;20284;-67
2022/03/27 11:03:48;;;;;;;;;;;;;;;-139.34;100.00;63888.56;10585058;27;19923;-66
2022/03/27 11:09:13;;;;;;;;;;;;;;;-139.34;100.00;63888.56;10575660;27;19923;-67
2022/03/27 11:14:57;;;;;;;;;;;;;;;-139.34;100.00;63888.56;10581091;27;19931;-66
2022/03/27 11:20:22;;;;;;;;;;;;;;;-139.34;100.00;63888.56;10576370;27;19923;-66
2022/03/27 11:25:45;;;;;;;;;;;;;;;-139.34;100.00;63888.56;10581046;27;19923;-71
2022/03/27 11:31:10;;;;;;;;;;;;;;;-139.34;100.00;63888.56;10582390;27;20360;-72
2022/03/27 11:36:34;;;;;;;;;;;;;;;-139.34;100.00;63888.56;10590697;27;20433;-73
2022/03/27 11:42:20;;;;;;;;;;;;;;;-139.34;100.00;63888.56;10580396;27;19959;-73
2022/03/27 11:47:45;;;;;;;;;;;;;;;-139.34;100.00;63888.56;10581007;27;19935;-73
2022/03/27 11:53:07;;;;;;;;;;;;;;;-139.34;100.00;63888.56;10600426;27;19924;-73
2022/03/27 11:58:29;;;;;;;;;;;;;;;-139.34;100.00;63888.56;10590959;27;19919;-72
2022/03/27 12:03:56;;;;;;;;;;;;;;;-139.34;100.00;63888.56;10576868;27;19927;-73
2022/03/27 12:09:25;;;;;;;;;;;;;;;-139.34;100.00;63888.56;10573671;27;20373;-73
2022/03/27 12:14:54;;;;;;;;;;;;;;;-139.34;100.00;63888.56;10576019;27;19919;-73
2022/03/27 12:20:15;;;;;;;;;;;;;;;-139.34;100.00;63888.56;10582440;27;19998;-72
2022/03/27 12:25:37;;;;;;;;;;;;;;;-139.34;100.00;63888.56;10599894;27;19923;-76
2022/03/27 12:30:58;;;;;;;;;;;;;;;-139.34;100.00;63888.56;10580821;27;19923;-78
2022/03/27 12:36:20;;;;;;;;;;;;;;;-139.34;100.00;63888.56;10583798;27;19930;-69
2022/03/27 12:41:42;;;;;;;;;;;;;;;-139.34;100.00;63888.56;10564688;27;20367;-68
2022/03/27 12:47:03;;;;;;;;;;;;;;;-139.34;100.00;63888.56;10570432;27;19923;-69
2022/03/27 12:52:25;;;;;;;;;;;;;;;-139.34;100.00;63888.56;10569513;27;19954;-68
2022/03/27 12:57:47;;;;;;;;;;;;;;;-139.34;100.00;63888.56;10578889;27;20614;-67
2022/03/27 13:03:18;;;;;;;;;;;;;;;-139.34;100.00;63888.56;10573727;27;19923;-68
2022/03/27 13:08:40;;;;;;;;;;;;;;;-139.34;100.00;63888.56;10580690;27;19919;-68
2022/03/27 13:14:02;;;;;;;;;;;;;;;-139.34;100.00;63888.56;10560765;27;19923;-68
2022/03/27 13:19:39;;;;;;;;;;;;;;;-139.34;100.00;63888.56;10566916;27;19927;-68
2022/03/27 13:25:01;;;;;;;;;;;;;;;-139.34;100.00;63888.56;10587351;27;20410;-68
2022/03/27 13:30:23;;;;;;;;;;;;;;;-139.34;100.00;63888.56;10582680;27;20387;-69
2022/03/27 13:35:48;;;;;;;;;;;;;;;-139.34;100.00;63888.56;10598830;27;20315;-68
2022/03/27 13:46:51;;;;;;;;;;;;;;;-139.34;100.00;63888.56;10568059;27;19920;-67
2022/03/27 13:52:12;;;;;;;;;;;;;;;-139.34;100.00;63888.56;10580609;27;20528;-68
2022/03/27 13:57:34;;;;;;;;;;;;;;;-139.34;100.00;63888.56;10579762;27;19920;-67
2022/03/27 14:02:56;;;;;;;;;;;;;;;-139.34;100.00;63888.56;10585528;27;19926;-67
2022/03/27 14:08:18;;;;;;;;;;;;;;;-139.34;100.00;63888.56;10627252;27;19919;-68
2022/03/27 14:13:39;;;;;;;;;;;;;;;-139.34;100.00;63888.56;10586454;27;19926;-67
2022/03/27 14:19:03;;;;;;;;;;;;;;;-139.34;100.00;63888.56;10564467;28;20292;-68
2022/03/27 14:24:24;;;;;;;;;;;;;;;-139.34;100.00;63888.56;10583020;27;19930;-71
2022/03/27 14:29:46;;;;;;;;;;;;;;;-139.34;100.00;63888.56;10596103;27;19923;-67
2022/03/27 14:35:08;;;;;;;;;;;;;;;-139.34;100.00;63888.56;10587469;28;19939;-73
2022/03/27 14:40:29;;;;;;;;;;;;;;;-139.34;100.00;63888.56;10610383;27;19919;-71
2022/03/27 14:45:51;;;;;;;;;;;;;;;-139.34;100.00;63888.56;10587989;28;20002;-72
2022/03/27 14:51:13;;;;;;;;;;;;;;;-139.34;100.00;63888.56;10620461;27;19941;-68
2022/03/27 14:56:37;;;;;;;;;;;;;;;-139.34;100.00;63888.56;10606752;27;19919;-69
2022/03/27 15:01:59;;;;;;;;;;;;;;;-139.34;100.00;63888.56;10610429;27;19942;-68
2022/03/27 15:07:21;;;;;;;;;;;;;;;-139.34;100.00;63888.56;10629663;27;19954;-67
2022/03/27 15:12:42;;;;;;;;;;;;;;;-139.34;100.00;63888.56;10628196;27;19926;-67
2022/03/27 15:18:05;;;;;;;;;;;;;;;-139.34;100.00;63888.56;10600786;28;19919;-68
2022/03/27 15:23:27;;;;;;;;;;;;;;;-139.34;100.00;63888.56;10622998;27;19929;-66
2022/03/27 15:28:48;;;;;;;;;;;;;;;-139.34;100.00;63888.56;10636028;27;19930;-67
2022/03/27 15:34:10;;;;;;;;;;;;;;;-139.34;100.00;63888.56;10620864;27;19923;-67
2022/03/27 15:39:31;;;;;;;;;;;;;;;-139.34;100.00;63888.56;10614544;27;19923;-68
2022/03/27 15:44:53;;;;;;;;;;;;;;;-139.34;100.00;63888.56;10609216;27;19919;-66
2022/03/27 15:50:15;;;;;;;;;;;;;;;-139.34;100.00;63888.56;10647232;27;19930;-70
2022/03/27 15:55:37;;;;;;;;;;;;;;;-139.34;100.00;63888.56;10629687;27;19930;-66
2022/03/27 16:01:04;;;;;;;;;;;;;;;-139.34;100.00;63888.56;10623269;27;20372;-66
2022/03/27 16:06:32;;;;;;;;;;;;;;;-139.34;100.00;63888.56;10642046;27;20025;-67
2022/03/27 16:11:54;;;;;;;;;;;;;;;-139.34;100.00;63888.56;10649780;27;19919;-67
2022/03/27 16:17:16;;;;;;;;;;;;;;;-139.34;100.00;63888.56;10636784;27;19930;-66
2022/03/27 16:22:37;;;;;;;;;;;;;;;-139.34;100.00;63888.56;10593186;27;19919;-67
2022/03/27 16:27:59;;;;;;;;;;;;;;;-139.34;100.00;63888.56;10612369;27;19998;-67
2022/03/27 16:33:22;;;;;;;;;;;;;;;-139.34;100.00;63888.56;10633934;27;19930;-68
2022/03/27 16:38:43;;;;;;;;;;;;;;;-139.34;100.00;63888.56;10620175;27;19919;-67
2022/03/27 16:44:05;;;;;;;;;;;;;;;-139.34;100.00;63888.56;10631362;27;20295;-68
2022/03/27 16:49:27;;;;;;;;;;;;;;;-139.34;100.00;63888.56;10624767;27;20010;-68
2022/03/27 16:54:48;;;;;;;;;;;;;;;-139.34;100.00;63888.56;10587243;27;19924;-68
2022/03/27 17:00:11;;;;;;;;;;;;;;;-139.34;100.00;63888.56;10617978;27;19924;-67
2022/03/27 17:05:33;;;;;;;;;;;;;;;-139.34;100.00;63888.56;10618990;27;19949;-67
2022/03/27 17:10:54;;;;;;;;;;;;;;;-139.34;100.00;63888.56;10618938;27;19958;-67
2022/03/27 17:16:16;;;;;;;;;;;;;;;-139.34;100.00;63888.56;10620809;27;19919;-66
2022/03/27 17:21:38;;;;;;;;;;;;;;;-139.34;100.00;63888.56;10628849;27;20508;-67
2022/03/27 17:26:59;;;;;;;;;;;;;;;-139.34;100.00;63888.56;10598710;27;19919;-67
2022/03/27 17:32:20;;;;;;;;;;;;;;;-139.34;100.00;63888.56;10625514;27;19946;-67
2022/03/27 17:37:44;;;;;;;;;;;;;;;-139.34;100.00;63888.56;10632425;27;19924;-67
2022/03/27 17:43:06;;;;;;;;;;;;;;;-139.34;100.00;63888.56;10603934;27;19925;-67
2022/03/27 17:48:28;;;;;;;;;;;;;;;-139.34;100.00;63888.56;10638903;27;19929;-67
2022/03/27 17:53:49;;;;;;;;;;;;;;;-139.34;100.00;63888.56;10608603;27;19923;-65
2022/03/27 17:59:11;;;;;;;;;;;;;;;-139.34;100.00;63888.56;10600481;27;19920;-66
2022/03/27 18:04:33;;;;;;;;;;;;;;;-139.34;100.00;63888.56;10634299;27;19923;-66
2022/03/27 18:09:54;;;;;;;;;;;;;;;-139.34;100.00;63888.56;10627535;27;19923;-65
2022/03/27 18:15:16;;;;;;;;;;;;;;;-139.34;100.00;63888.56;10635707;27;19923;-64
2022/03/27 18:20:38;;;;;;;;;;;;;;;-139.34;100.00;63888.56;10627976;27;20462;-65
2022/03/27 18:26:00;;;;;;;;;;;;;;;-139.34;100.00;63888.56;10606891;27;19920;-65
2022/03/27 18:31:22;;;;;;;;;;;;;;;-139.34;100.00;63888.56;10628866;27;19923;-65
2022/03/27 18:36:44;;;;;;;;;;;;;;;-139.34;100.00;63888.56;10595213;27;20425;-64
2022/03/27 18:42:06;;;;;;;;;;;;;;;-139.34;100.00;63888.56;10621561;27;20001;-65
2022/03/27 18:47:27;;;;;;;;;;;;;;;-139.34;100.00;63888.56;10635165;27;19923;-65
2022/03/27 18:52:49;;;;;;;;;;;;;;;-139.34;100.00;63888.56;10628314;27;19923;-65
2022/03/27 18:58:11;;;;;;;;;;;;;;;-139.34;100.00;63888.56;10599001;27;19919;-65
2022/03/27 19:03:33;;;;;;;;;;;;;;;-139.34;100.00;63888.56;10604579;27;19930;-65
2022/03/27 19:08:54;;;;;;;;;;;;;;;-139.34;100.00;63888.56;10628670;27;20437;-66
2022/03/27 19:14:21;;;;;;;;;;;;;;;-139.34;100.00;63888.56;10640489;27;19919;-67
2022/03/27 19:19:46;;;;;;;;;;;;;;;-139.34;100.00;63888.56;10628885;27;19926;-66
2022/03/27 19:25:11;;;;;;;;;;;;;;;-139.34;100.00;63888.56;10617208;27;20359;-67
2022/03/27 19:30:34;;;;;;;;;;;;;;;-139.34;100.00;63888.56;10593573;27;20295;-67
2022/03/27 19:35:56;;;;;;;;;;;;;;;-139.34;100.00;63888.56;10636717;27;19919;-67
2022/03/27 19:41:19;;;;;;;;;;;;;;;-139.34;100.00;63888.56;10651071;27;20282;-66
2022/03/27 19:46:40;;;;;;;;;;;;;;;-139.34;100.00;63888.56;10594860;27;19926;-66
2022/03/27 19:52:02;;;;;;;;;;;;;;;-139.34;100.00;63888.56;10623217;27;20360;-67
2022/03/27 19:57:25;;;;;;;;;;;;;;;-139.34;100.00;63888.56;10608165;27;20364;-67
2022/03/27 20:02:51;;;;;;;;;;;;;;;-139.34;100.00;63888.56;10644049;27;19930;-66
2022/03/27 20:08:13;;;;;;;;;;;;;;;-139.34;100.00;63888.56;10611272;27;20433;-66
2022/03/27 20:13:36;;;;;;;;;;;;;;;-139.34;100.00;63888.56;10641675;27;19946;-66
2022/03/27 20:18:58;;;;;;;;;;;;;;;-139.34;100.00;63888.56;10645903;27;19926;-66
2022/03/27 20:24:20;;;;;;;;;;;;;;;-139.34;100.00;63888.56;10591755;27;19923;-67
2022/03/27 20:29:41;;;;;;;;;;;;;;;-139.34;100.00;63888.56;10653753;27;19929;-66
2022/03/27 20:35:04;;;;;;;;;;;;;;;-139.34;100.00;63888.56;10638708;27;19926;-66
2022/03/27 20:40:26;;;;;;;;;;;;;;;-139.34;100.00;63888.56;10634947;27;19926;-66
2022/03/27 20:45:48;;;;;;;;;;;;;;;-139.34;100.00;63888.56;10614548;27;19923;-67
2022/03/27 20:51:09;;;;;;;;;;;;;;;-139.34;100.00;63888.56;10599204;27;19949;-67
2022/03/27 20:56:31;;;;;;;;;;;;;;;-139.34;100.00;63888.56;10614099;27;20005;-67
2022/03/27 21:01:53;;;;;;;;;;;;;;;-139.34;100.00;63888.56;10630277;27;19919;-67
2022/03/27 21:07:15;;;;;;;;;;;;;;;-139.34;100.00;63888.56;10646553;27;19919;-66
2022/03/27 21:12:36;;;;;;;;;;;;;;;-139.34;100.00;63888.56;10637443;27;19919;-67
2022/03/27 21:17:58;;;;;;;;;;;;;;;-139.34;100.00;63888.56;10644660;27;19922;-67
2022/03/27 21:23:20;;;;;;;;;;;;;;;-139.34;100.00;63888.56;10642331;27;19923;-66
2022/03/27 21:28:41;;;;;;;;;;;;;;;-139.34;100.00;63888.56;10615120;27;20381;-67
2022/03/27 21:34:03;;;;;;;;;;;;;;;-139.34;100.00;63888.56;10594236;27;20264;-66
2022/03/27 21:39:37;;;;;;;;;;;;;;;-139.34;100.00;63888.56;10604252;27;19919;-66
2022/03/27 21:44:58;;;;;;;;;;;;;;;-139.34;100.00;63888.56;10617915;27;19923;-66
2022/03/27 21:50:21;;;;;;;;;;;;;;;-139.34;100.00;63888.56;10612694;27;19934;-67
2022/03/27 21:55:42;;;;;;;;;;;;;;;-139.34;100.00;63888.56;10616495;27;19931;-66
2022/03/27 22:01:06;;;;;;;;;;;;;;;-139.34;100.00;63888.56;10615838;27;19929;-66
2022/03/27 22:06:28;;;;;;;;;;;;;;;-139.34;100.00;63888.56;10641813;27;20015;-67
2022/03/27 22:11:49;;;;;;;;;;;;;;;-139.34;100.00;63888.56;10627605;27;20283;-66
2022/03/27 22:17:11;;;;;;;;;;;;;;;-139.34;100.00;63888.56;10606787;27;20279;-67
2022/03/27 22:22:33;;;;;;;;;;;;;;;-139.34;100.00;63888.56;10611459;27;20409;-66
2022/03/27 22:27:54;;;;;;;;;;;;;;;-139.34;100.00;63888.56;10619407;27;19968;-66
2022/03/27 22:33:16;;;;;;;;;;;;;;;-139.34;100.00;63888.56;10644459;27;19919;-66
2022/03/27 22:38:37;;;;;;;;;;;;;;;-139.34;100.00;63888.56;10635138;27;19932;-66
2022/03/27 22:43:59;;;;;;;;;;;;;;;-139.34;100.00;63888.56;10642417;27;20006;-66
2022/03/27 22:49:21;;;;;;;;;;;;;;;-139.34;100.00;63888.56;10631024;27;19934;-66
2022/03/27 22:54:42;;;;;;;;;;;;;;;-139.34;100.00;63888.56;10644266;27;19924;-66
2022/03/27 23:00:08;;;;;;;;;;;;;;;-139.34;100.00;63888.56;10615558;27;19919;-66
2022/03/27 23:05:30;;;;;;;;;;;;;;;-139.34;100.00;63888.56;10642769;27;19926;-66
2022/03/27 23:10:52;;;;;;;;;;;;;;;-139.34;100.00;63888.56;10652567;27;19919;-67
2022/03/27 23:16:13;;;;;;;;;;;;;;;-139.34;100.00;63888.56;10626790;27;20281;-66
2022/03/27 23:21:36;;;;;;;;;;;;;;;-139.34;100.00;63888.56;10638628;27;19922;-66
2022/03/27 23:26:57;;;;;;;;;;;;;;;-139.34;100.00;63888.56;10608193;27;20298;-66
2022/03/27 23:32:19;;;;;;;;;;;;;;;-139.34;100.00;63888.56;10626269;27;20315;-66
2022/03/27 23:37:41;;;;;;;;;;;;;;;-139.34;100.00;63888.56;10621532;27;20322;-66
2022/03/27 23:43:02;;;;;;;;;;;;;;;-139.34;100.00;63888.56;10595198;27;19926;-65
2022/03/27 23:48:24;;;;;;;;;;;;;;;-139.34;100.00;63888.56;10619906;27;19927;-66
2022/03/27 23:53:46;;;;;;;;;;;;;;;-139.34;100.00;63888.56;10633223;27;19919;-65
2022/03/27 23:59:07;;;;;;;;;;;;;;;-139.34;100.00;63888.56;10644327;27;19925;-66
